aviador You're here:

RJTY Decoded Metar

YOKOTA in JAPAN
Report Time2018-07-21 17:56:00
UTC Time2018-07-21 18:59:32
Flight Rules vfr VFR
Wind250° at 03 kt
W.Decomp.*RWY 18: 0.7 kt HW 2.9 kt RCW
W.Rank250° ranks 35
Current wind is below 250° avg. (4.1)
Visibility9999 m
Phenomena:N/A
Clouds:N/A
Expected CloudBase > 1,600 ft AGL from Temp-Dew spread
CeilingNone
Temp28°C (ISA +14)
Dew Point24°C (79% RH)
Heat Index31.9°C
QNH1011 hPa
Density Alt2,516 ft
Elevation456 ft
Report Wrong Elevation
Raw Report
RJTY 211756Z AUTO 25003KT 10SM CLR 28/24 A2986 RMK AO2 SLP105
T02770235 10297 20272 56005 FZRANO $=

Extra information for RJTY:More info

Metar Taf Metar & Taf Last 4 Metars F.Rules Stats Wind Profile Meteogram Temp Stats Airport Information Weather charts Add Link Nearby VenuesMetar ALERT Operation Metar Decoded Social comments